createdAt,value
2023-01-10T00:00:46.569Z,98189.06
2023-01-10T00:02:52.467Z,98184.88
2023-01-10T00:05:00.024Z,98181.47
2023-01-10T00:07:04.918Z,98183.91
2023-01-10T00:09:10.454Z,98187.22
2023-01-10T00:11:27.725Z,98191.28
2023-01-10T00:13:32.601Z,98202.94
2023-01-10T00:15:38.179Z,98197.94
2023-01-10T00:17:43.406Z,98212.09
2023-01-10T00:19:48.657Z,98202.06
2023-01-10T00:21:57.579Z,98217.88
2023-01-10T00:24:17.023Z,98222.81
2023-01-10T00:26:21.847Z,98212.91
2023-01-10T00:28:27.316Z,98219.50
2023-01-10T00:30:34.143Z,98217.84
2023-01-10T00:32:39.006Z,98226.22
2023-01-10T00:34:43.827Z,98221.28
2023-01-10T00:36:49.986Z,98221.28
2023-01-10T00:38:57.398Z,98229.59
2023-01-10T00:41:02.287Z,98230.44
2023-01-10T00:43:20.007Z,98232.09
2023-01-10T00:45:27.504Z,98242.84
2023-01-10T00:47:32.391Z,98251.16
2023-01-10T00:49:37.259Z,98254.53
2023-01-10T00:51:43.117Z,98250.31
2023-01-10T00:53:48.160Z,98258.69
2023-01-10T00:55:56.668Z,98263.69
2023-01-10T00:58:01.538Z,98261.19
2023-01-10T01:00:09.318Z,98270.28
2023-01-10T01:02:14.888Z,98281.06
2023-01-10T01:04:20.429Z,98285.22
2023-01-10T01:06:25.385Z,98288.56
2023-01-10T01:08:30.609Z,98301.81
2023-01-10T01:10:35.534Z,98310.13
2023-01-10T01:12:42.993Z,98310.16
2023-01-10T01:14:48.609Z,98311.00
2023-01-10T01:16:54.206Z,98314.34
2023-01-10T01:18:59.725Z,98325.13
2023-01-10T01:21:05.815Z,98321.75
2023-01-10T01:23:10.984Z,98329.22
2023-01-10T01:25:16.055Z,98345.84
2023-01-10T01:27:21.035Z,98343.38
2023-01-10T01:29:42.365Z,98343.47
2023-01-10T01:31:48.822Z,98349.19
2023-01-10T01:33:54.268Z,98352.56
2023-01-10T01:35:59.123Z,98360.06
2023-01-10T01:38:04.183Z,98362.56
2023-01-10T01:40:12.779Z,98363.41
2023-01-10T01:42:28.329Z,98368.34
2023-01-10T01:44:42.937Z,98373.34
2023-01-10T01:46:52.897Z,98379.16
2023-01-10T01:48:58.085Z,98385.00
2023-01-10T01:51:11.105Z,98384.13
2023-01-10T01:53:21.437Z,98393.28
2023-01-10T01:55:29.465Z,98395.75
2023-01-10T01:57:36.989Z,98406.56
2023-01-10T01:59:47.564Z,98416.50
2023-01-10T02:01:59.146Z,98406.50
2023-01-10T02:04:13.107Z,98408.19
2023-01-10T02:06:21.045Z,98417.28
2023-01-10T02:08:26.563Z,98419.81
2023-01-10T02:10:40.507Z,98427.28
2023-01-10T02:12:47.613Z,98427.31
2023-01-10T02:14:56.809Z,98443.09
2023-01-10T02:17:01.707Z,98434.75
2023-01-10T02:19:15.802Z,98433.09
2023-01-10T02:22:29.098Z,98438.94
2023-01-10T02:25:28.097Z,98442.22
2023-01-10T02:27:46.059Z,98444.72
2023-01-10T02:30:41.503Z,98447.16
2023-01-10T02:33:04.216Z,98456.25
2023-01-10T02:35:26.972Z,98457.16
2023-01-10T02:37:48.105Z,98464.66
2023-01-10T02:40:11.053Z,98461.25
2023-01-10T02:42:21.817Z,98473.72
2023-01-10T02:44:37.308Z,98471.28
2023-01-10T02:46:43.672Z,98473.69
2023-01-10T02:48:51.177Z,98475.38
2023-01-10T02:51:04.607Z,98479.59
2023-01-10T02:53:13.916Z,98483.78
2023-01-10T02:55:20.442Z,98488.00
2023-01-10T02:57:46.761Z,98495.56
2023-01-10T03:00:23.045Z,98503.03
2023-01-10T03:02:47.735Z,98507.22
2023-01-10T03:05:03.207Z,98518.06
2023-01-10T03:07:19.967Z,98518.94
2023-01-10T03:09:34.652Z,98522.28
2023-01-10T03:11:44.954Z,98521.50
2023-01-10T03:13:56.730Z,98520.72
2023-01-10T03:16:05.443Z,98519.13
2023-01-10T03:18:15.974Z,98529.16
2023-01-10T03:20:26.016Z,98527.53
2023-01-10T03:22:34.195Z,98533.38
2023-01-10T03:24:45.845Z,98542.53
2023-01-10T03:26:56.513Z,98541.72
2023-01-10T03:29:09.171Z,98539.22
2023-01-10T03:31:19.927Z,98540.91
2023-01-10T03:33:30.340Z,98554.19
2023-01-10T03:35:53.755Z,98555.81
2023-01-10T03:38:02.181Z,98567.41
2023-01-10T03:40:17.956Z,98571.56
2023-01-10T03:42:52.688Z,98575.72
2023-01-10T03:45:02.127Z,98574.09
2023-01-10T03:47:12.423Z,98587.38
2023-01-10T03:49:19.651Z,98591.56
2023-01-10T03:51:28.802Z,98599.00
2023-01-10T03:53:34.855Z,98598.16
2023-01-10T03:55:40.764Z,98603.97
2023-01-10T03:57:48.959Z,98600.63
2023-01-10T03:59:57.784Z,98610.56
2023-01-10T04:02:03.027Z,98612.22
2023-01-10T04:04:08.915Z,98613.03
2023-01-10T04:06:14.790Z,98605.53
2023-01-10T04:08:22.650Z,98610.53
2023-01-10T04:10:29.834Z,98618.00
2023-01-10T04:12:35.192Z,98617.19
2023-01-10T04:14:40.186Z,98621.31
2023-01-10T04:16:45.348Z,98630.47
2023-01-10T04:18:50.642Z,98632.13
2023-01-10T04:20:55.545Z,98648.63
2023-01-10T04:23:00.470Z,98650.28
2023-01-10T04:25:09.726Z,98660.22
2023-01-10T04:27:14.629Z,98649.34
2023-01-10T04:29:19.535Z,98665.16
2023-01-10T04:31:27.340Z,98675.09
2023-01-10T04:33:32.454Z,98685.84
2023-01-10T04:35:37.840Z,98690.03
2023-01-10T04:37:42.746Z,98693.38
2023-01-10T04:39:47.640Z,98688.44
2023-01-10T04:41:55.459Z,98683.50
2023-01-10T04:44:00.368Z,98686.00
2023-01-10T04:46:05.818Z,98692.69
2023-01-10T04:48:11.271Z,98694.38
2023-01-10T04:50:16.239Z,98692.69
2023-01-10T04:52:21.184Z,98694.38
2023-01-10T04:54:26.360Z,98701.88
2023-01-10T04:56:31.302Z,98696.06
2023-01-10T04:58:40.905Z,98709.38
2023-01-10T05:00:46.202Z,98711.91
2023-01-10T05:02:51.292Z,98712.72
2023-01-10T05:04:56.561Z,98710.25
2023-01-10T05:07:01.474Z,98715.22
2023-01-10T05:09:06.609Z,98727.69
2023-01-10T05:11:12.060Z,98726.00
2023-01-10T05:13:17.318Z,98738.47
2023-01-10T05:15:25.685Z,98734.34
2023-01-10T05:17:31.260Z,98737.63
2023-01-10T05:19:36.574Z,98738.50
2023-01-10T05:21:41.975Z,98734.31
2023-01-10T05:23:47.255Z,98746.78
2023-01-10T05:25:52.518Z,98748.47
2023-01-10T05:27:57.599Z,98748.47
2023-01-10T05:30:02.957Z,98745.16
2023-01-10T05:32:10.921Z,98755.97
2023-01-10T05:34:16.419Z,98754.28
2023-01-10T05:36:22.591Z,98762.59
2023-01-10T05:38:27.493Z,98760.13
2023-01-10T05:40:33.005Z,98770.91
2023-01-10T05:42:38.684Z,98773.41
2023-01-10T05:44:43.945Z,98781.69
2023-01-10T05:46:48.858Z,98786.69
2023-01-10T05:48:57.780Z,98789.16
2023-01-10T05:51:03.420Z,98790.00
2023-01-10T05:53:08.371Z,98793.31
2023-01-10T05:55:13.723Z,98794.13
2023-01-10T05:57:19.242Z,98804.94
2023-01-10T05:59:28.429Z,98806.59
2023-01-10T06:01:33.616Z,98810.75
2023-01-10T06:03:38.606Z,98815.75
2023-01-10T06:05:48.475Z,98821.53
2023-01-10T06:07:54.082Z,98826.53
2023-01-10T06:09:59.367Z,98822.41
2023-01-10T06:12:04.369Z,98826.53
2023-01-10T06:14:10.283Z,98825.69
2023-01-10T06:16:15.247Z,98835.66
2023-01-10T06:18:20.175Z,98843.13
2023-01-10T06:20:25.529Z,98839.84
2023-01-10T06:22:33.015Z,98846.47
2023-01-10T06:24:38.313Z,98846.47
2023-01-10T06:26:43.233Z,98856.44
2023-01-10T06:28:48.387Z,98851.47
2023-01-10T06:30:53.706Z,98859.75
2023-01-10T06:33:04.350Z,98863.06
2023-01-10T06:35:09.944Z,98873.03
2023-01-10T06:37:14.839Z,98874.66
2023-01-10T06:39:22.635Z,98872.16
2023-01-10T06:41:27.991Z,98875.50
2023-01-10T06:43:35.587Z,98871.34
2023-01-10T06:45:40.536Z,98872.97
2023-01-10T06:47:45.744Z,98877.13
2023-01-10T06:49:50.660Z,98880.41
2023-01-10T06:51:55.551Z,98887.03
2023-01-10T06:54:00.438Z,98888.66
2023-01-10T06:56:09.757Z,98887.81
2023-01-10T06:58:18.751Z,98896.09
2023-01-10T07:00:25.972Z,98899.44
2023-01-10T07:02:30.861Z,98899.44
2023-01-10T07:04:36.022Z,98908.50
2023-01-10T07:06:41.602Z,98919.25
2023-01-10T07:08:48.596Z,98919.25
2023-01-10T07:10:53.530Z,98922.56
2023-01-10T07:13:01.393Z,98920.94
2023-01-10T07:15:06.879Z,98918.47
2023-01-10T07:17:11.979Z,98930.09
2023-01-10T07:19:17.701Z,98938.38
2023-01-10T07:21:22.759Z,98938.34
2023-01-10T07:23:27.801Z,98931.69
2023-01-10T07:25:32.919Z,98946.56
2023-01-10T07:27:40.007Z,98934.97
2023-01-10T07:29:47.508Z,98947.44
2023-01-10T07:31:52.431Z,98954.94
2023-01-10T07:33:57.388Z,98959.06
2023-01-10T07:36:04.413Z,98967.38
2023-01-10T07:38:09.567Z,98969.06
2023-01-10T07:40:15.943Z,98979.06
2023-01-10T07:42:20.861Z,98983.22
2023-01-10T07:44:25.796Z,98987.38
2023-01-10T07:46:33.362Z,98982.38
2023-01-10T07:48:39.272Z,98989.84
2023-01-10T07:50:44.187Z,98982.38
2023-01-10T07:52:49.093Z,98991.53
2023-01-10T07:54:54.043Z,98981.56
2023-01-10T07:56:58.962Z,98989.84
2023-01-10T07:59:04.175Z,98992.31
2023-01-10T08:01:09.765Z,98997.31
2023-01-10T08:03:17.458Z,99002.34
2023-01-10T08:05:22.931Z,99003.22
2023-01-10T08:07:28.294Z,99003.25
2023-01-10T08:09:33.204Z,99013.28
2023-01-10T08:11:39.736Z,99018.31
2023-01-10T08:13:46.352Z,99023.31
2023-01-10T08:15:52.747Z,99020.03
2023-01-10T08:17:58.491Z,99023.34
2023-01-10T08:20:06.969Z,99024.19
2023-01-10T08:22:11.950Z,99032.53
2023-01-10T08:24:16.857Z,99025.88
2023-01-10T08:26:21.804Z,99035.03
2023-01-10T08:28:26.780Z,99030.09
2023-01-10T08:30:32.166Z,99037.56
2023-01-10T08:32:37.123Z,99035.91
2023-01-10T08:34:42.569Z,99030.91
2023-01-10T08:36:53.672Z,99029.28
2023-01-10T08:38:58.669Z,99025.94
2023-01-10T08:41:03.583Z,99030.94
2023-01-10T08:43:10.720Z,99037.59
2023-01-10T08:45:15.755Z,99035.91
2023-01-10T08:47:20.695Z,99035.88
2023-01-10T08:49:25.761Z,99027.56
2023-01-10T08:51:30.721Z,99041.69
2023-01-10T08:53:38.412Z,99050.81
2023-01-10T08:55:43.924Z,99055.81
2023-01-10T08:57:48.872Z,99044.19
2023-01-10T08:59:53.799Z,99045.88
2023-01-10T09:02:00.331Z,99047.56
2023-01-10T09:04:05.940Z,99070.00
2023-01-10T09:06:11.659Z,99073.38
2023-01-10T09:08:16.577Z,99084.19
2023-01-10T09:10:24.188Z,99080.88
2023-01-10T09:12:41.656Z,99079.22
2023-01-10T09:14:46.716Z,99080.88
2023-01-10T09:16:52.631Z,99085.84
2023-01-10T09:18:57.626Z,99080.03
2023-01-10T09:21:03.080Z,99085.84
2023-01-10T09:23:09.619Z,99084.19
2023-01-10T09:25:14.830Z,99093.31
2023-01-10T09:27:22.352Z,99105.00
2023-01-10T09:29:27.257Z,99115.78
2023-01-10T09:31:32.216Z,99114.13
2023-01-10T09:33:46.230Z,99111.63
2023-01-10T09:35:52.237Z,99120.78
2023-01-10T09:37:58.061Z,99118.28
2023-01-10T09:40:03.023Z,99130.78
2023-01-10T09:42:31.459Z,99119.13
2023-01-10T09:44:50.420Z,99125.78
2023-01-10T09:47:14.231Z,99129.13
2023-01-10T09:49:43.899Z,99139.13
2023-01-10T09:51:52.751Z,99131.59
2023-01-10T09:54:11.001Z,99140.75
2023-01-10T09:56:18.827Z,99139.94
2023-01-10T09:58:29.664Z,99133.28
2023-01-10T10:00:45.220Z,99135.78
2023-01-10T10:02:55.900Z,99137.44
2023-01-10T10:05:19.755Z,99127.47
2023-01-10T10:07:24.708Z,99132.44
2023-01-10T10:09:34.218Z,99134.09
2023-01-10T10:11:52.769Z,99130.78
2023-01-10T10:14:07.655Z,99130.78
2023-01-10T10:16:30.303Z,99130.78
2023-01-10T10:18:52.406Z,99124.13
2023-01-10T10:21:07.345Z,99122.47
2023-01-10T10:23:34.035Z,99119.97
2023-01-10T10:25:56.291Z,99113.28
2023-01-10T10:28:21.531Z,99105.78
2023-01-10T10:30:48.420Z,99110.78
2023-01-10T10:33:28.923Z,99104.94
2023-01-10T10:35:39.145Z,99111.56
2023-01-10T10:37:48.604Z,99120.78
2023-01-10T10:40:00.374Z,99120.78
2023-01-10T10:42:09.057Z,99127.47
2023-01-10T10:44:35.527Z,99139.09
2023-01-10T10:46:45.731Z,99132.44
2023-01-10T10:49:00.029Z,99140.75
2023-01-10T10:51:12.143Z,99143.28
2023-01-10T10:53:19.187Z,99142.44
2023-01-10T10:55:31.978Z,99145.75
2023-01-10T10:57:51.607Z,99151.59
2023-01-10T11:00:02.827Z,99144.06
2023-01-10T11:02:29.311Z,99146.56
2023-01-10T11:04:35.089Z,99142.41
2023-01-10T11:06:48.814Z,99147.41
2023-01-10T11:08:57.997Z,99140.72
2023-01-10T11:11:06.994Z,99144.88
2023-01-10T11:13:23.819Z,99142.38
2023-01-10T11:15:42.194Z,99145.72
2023-01-10T11:18:08.183Z,99142.31
2023-01-10T11:20:20.264Z,99143.94
2023-01-10T11:22:26.030Z,99143.03
2023-01-10T11:24:36.554Z,99149.63
2023-01-10T11:26:42.868Z,99149.69
2023-01-10T11:28:47.894Z,99148.06
2023-01-10T11:30:54.611Z,99153.13
2023-01-10T11:33:05.383Z,99151.44
2023-01-10T11:35:22.257Z,99152.31
2023-01-10T11:37:32.601Z,99152.31
2023-01-10T11:39:37.688Z,99150.63
2023-01-10T11:41:42.623Z,99146.47
2023-01-10T11:43:47.668Z,99149.00
2023-01-10T11:45:58.901Z,99144.00
2023-01-10T11:48:12.949Z,99143.94
2023-01-10T11:50:22.801Z,99153.16
2023-01-10T11:52:31.033Z,99145.66
2023-01-10T11:54:37.089Z,99140.59
2023-01-10T11:56:43.601Z,99138.09
2023-01-10T11:58:48.769Z,99151.47
2023-01-10T12:00:53.920Z,99150.59
2023-01-10T12:02:58.932Z,99153.09
2023-01-10T12:05:11.344Z,99141.38
2023-01-10T12:07:19.077Z,99148.91
2023-01-10T12:09:43.813Z,99145.53
2023-01-10T12:11:48.787Z,99143.09
2023-01-10T12:13:56.246Z,99144.75
2023-01-10T12:16:24.862Z,99138.94
2023-01-10T12:18:29.966Z,99136.47
2023-01-10T12:20:47.766Z,99139.81
2023-01-10T12:22:58.621Z,99136.50
2023-01-10T12:25:09.925Z,99145.69
2023-01-10T12:27:18.275Z,99140.69
2023-01-10T12:29:28.777Z,99144.03
2023-01-10T12:31:35.106Z,99139.06
2023-01-10T12:33:46.665Z,99132.38
2023-01-10T12:36:01.715Z,99127.38
2023-01-10T12:38:21.717Z,99129.03
2023-01-10T12:40:37.265Z,99122.38
2023-01-10T12:43:10.522Z,99124.03
2023-01-10T12:45:19.469Z,99124.03
2023-01-10T12:47:33.542Z,99124.00
2023-01-10T12:49:45.165Z,99127.34
2023-01-10T12:51:56.013Z,99125.66
2023-01-10T12:54:05.929Z,99132.34
2023-01-10T12:56:16.495Z,99124.84
2023-01-10T12:58:26.906Z,99129.84
2023-01-10T13:00:47.299Z,99133.19
2023-01-10T13:02:57.255Z,99137.38
2023-01-10T13:05:06.586Z,99130.72
2023-01-10T13:07:16.603Z,99127.34
2023-01-10T13:09:24.741Z,99135.72
2023-01-10T13:11:38.649Z,99142.38
2023-01-10T13:13:52.300Z,99139.06
2023-01-10T13:16:05.712Z,99137.41
2023-01-10T13:18:21.285Z,99141.56
2023-01-10T13:20:44.460Z,99134.09
2023-01-10T13:22:53.935Z,99134.91
2023-01-10T13:25:02.667Z,99135.75
2023-01-10T13:27:08.294Z,99142.41
2023-01-10T13:29:19.391Z,99142.41
2023-01-10T13:31:32.069Z,99134.06
2023-01-10T13:33:53.412Z,99133.25
2023-01-10T13:36:11.129Z,99133.25
2023-01-10T13:38:27.494Z,99140.72
2023-01-10T13:40:33.264Z,99135.72
2023-01-10T13:42:51.975Z,99140.72
2023-01-10T13:45:24.077Z,99138.22
2023-01-10T13:48:16.374Z,99147.34
2023-01-10T13:51:09.597Z,99150.66
2023-01-10T13:53:59.133Z,99152.34
2023-01-10T13:56:05.108Z,99149.84
2023-01-10T13:58:56.840Z,99149.00
2023-01-10T14:01:17.546Z,99149.84
2023-01-10T14:03:48.421Z,99145.69
2023-01-10T14:05:55.274Z,99135.72
2023-01-10T14:08:00.408Z,99135.69
2023-01-10T14:10:12.174Z,99139.03
2023-01-10T14:12:29.811Z,99140.72
2023-01-10T14:14:38.212Z,99134.03
2023-01-10T14:16:45.649Z,99137.38
2023-01-10T14:18:50.597Z,99135.69
2023-01-10T14:21:02.914Z,99129.03
2023-01-10T14:23:20.128Z,99129.03
2023-01-10T14:25:29.570Z,99125.69
2023-01-10T14:27:46.760Z,99132.34
2023-01-10T14:29:57.005Z,99124.03
2023-01-10T14:32:03.844Z,99119.06
2023-01-10T14:34:14.426Z,99111.53
2023-01-10T14:36:24.545Z,99115.72
2023-01-10T14:38:33.671Z,99111.56
2023-01-10T14:40:47.622Z,99103.22
2023-01-10T14:42:55.811Z,99111.56
2023-01-10T14:45:05.257Z,99106.59
2023-01-10T14:47:31.597Z,99099.09
2023-01-10T14:49:39.955Z,99115.78
2023-01-10T14:51:44.883Z,99108.28
2023-01-10T14:53:57.340Z,99103.28
2023-01-10T14:56:04.924Z,99104.16
2023-01-10T14:58:09.985Z,99098.31
2023-01-10T15:00:20.605Z,99103.31
2023-01-10T15:02:28.032Z,99104.16
2023-01-10T15:04:36.287Z,99090.84
2023-01-10T15:06:58.584Z,99095.81
2023-01-10T15:09:04.056Z,99100.84
2023-01-10T15:11:16.129Z,99100.84
2023-01-10T15:13:26.395Z,99102.50
2023-01-10T15:15:35.916Z,99095.00
2023-01-10T15:17:42.149Z,99090.84
2023-01-10T15:19:48.377Z,99080.03
2023-01-10T15:24:02.795Z,99087.53
2023-01-10T15:26:16.336Z,99090.84
2023-01-10T15:28:22.619Z,99089.19
2023-01-10T15:30:31.479Z,99083.34
2023-01-10T15:32:39.788Z,99082.53
2023-01-10T15:34:44.939Z,99085.84
2023-01-10T15:36:54.018Z,99084.19
2023-01-10T15:38:59.153Z,99088.34
2023-01-10T15:41:07.353Z,99080.88
2023-01-10T15:43:27.757Z,99080.84
2023-01-10T15:45:37.749Z,99076.72
2023-01-10T15:47:52.792Z,99079.22
2023-01-10T15:49:58.308Z,99080.88
2023-01-10T15:52:03.567Z,99081.69
2023-01-10T15:54:30.341Z,99084.19
2023-01-10T15:56:38.436Z,99078.38
2023-01-10T15:58:46.451Z,99074.22
2023-01-10T16:00:54.378Z,99067.56
2023-01-10T16:03:00.285Z,99064.22
2023-01-10T16:05:12.373Z,99064.22
2023-01-10T16:07:24.265Z,99064.25
2023-01-10T16:09:30.035Z,99070.88
2023-01-10T16:11:55.496Z,99064.25
2023-01-10T16:14:02.962Z,99069.25
2023-01-10T16:16:19.764Z,99064.25
2023-01-10T16:18:25.559Z,99057.59
2023-01-10T16:20:34.190Z,99060.91
2023-01-10T16:22:39.905Z,99054.25
2023-01-10T16:24:47.526Z,99057.59
2023-01-10T16:26:53.962Z,99055.94
2023-01-10T16:28:59.087Z,99055.09
2023-01-10T16:31:09.163Z,99049.28
2023-01-10T16:33:17.695Z,99041.78
2023-01-10T16:35:24.171Z,99053.41
2023-01-10T16:37:29.065Z,99038.44
2023-01-10T16:39:34.960Z,99048.44
2023-01-10T16:41:52.966Z,99035.94
2023-01-10T16:43:58.004Z,99030.94
2023-01-10T16:46:03.894Z,99029.31
2023-01-10T16:48:12.452Z,99029.28
2023-01-10T16:50:19.942Z,99027.63
2023-01-10T16:52:24.926Z,99035.13
2023-01-10T16:54:31.128Z,99027.63
2023-01-10T16:56:36.065Z,99023.50
2023-01-10T16:58:40.980Z,99019.31
2023-01-10T17:00:49.672Z,99013.50
2023-01-10T17:02:54.591Z,99013.50
2023-01-10T17:05:02.095Z,99019.31
2023-01-10T17:07:06.994Z,99017.66
2023-01-10T17:09:19.334Z,99017.66
2023-01-10T17:11:31.701Z,99009.34
2023-01-10T17:13:41.609Z,99020.16
2023-01-10T17:15:46.508Z,99015.97
2023-01-10T17:17:51.481Z,99021.00
2023-01-10T17:19:56.417Z,99015.19
2023-01-10T17:22:03.902Z,99011.84
2023-01-10T17:24:11.816Z,99018.50
2023-01-10T17:26:19.513Z,99012.69
2023-01-10T17:28:24.414Z,99013.50
2023-01-10T17:30:29.339Z,99017.66
2023-01-10T17:32:36.750Z,99014.34
2023-01-10T17:34:42.145Z,99006.00
2023-01-10T17:36:47.038Z,99014.34
2023-01-10T17:38:54.564Z,99006.84
2023-01-10T17:41:03.922Z,99001.03
2023-01-10T17:43:08.967Z,98999.34
2023-01-10T17:45:14.768Z,98991.06
2023-01-10T17:47:19.701Z,98991.88
2023-01-10T17:49:24.694Z,98992.72
2023-01-10T17:51:29.649Z,98998.53
2023-01-10T17:53:34.674Z,98994.38
2023-01-10T17:55:47.026Z,98983.56
2023-01-10T17:57:52.150Z,98980.25
2023-01-10T17:59:57.073Z,98984.38
2023-01-10T18:02:02.170Z,98983.56
2023-01-10T18:04:08.324Z,98981.03
2023-01-10T18:06:23.299Z,98974.44
2023-01-10T18:08:29.283Z,98976.06
2023-01-10T18:10:34.517Z,98971.06
2023-01-10T18:12:42.191Z,98967.75
2023-01-10T18:14:47.106Z,98971.09
2023-01-10T18:16:52.354Z,98969.44
2023-01-10T18:18:58.681Z,98977.75
2023-01-10T18:21:05.380Z,98966.94
2023-01-10T18:23:21.447Z,98977.75
2023-01-10T18:25:28.973Z,98975.25
2023-01-10T18:27:33.906Z,98974.41
2023-01-10T18:29:41.387Z,98972.75
2023-01-10T18:31:46.316Z,98981.06
2023-01-10T18:33:54.457Z,98976.06
2023-01-10T18:35:59.405Z,98978.56
2023-01-10T18:38:05.003Z,98976.91
2023-01-10T18:40:12.331Z,98976.06
2023-01-10T18:42:17.320Z,98974.38
2023-01-10T18:44:22.499Z,98969.44
2023-01-10T18:46:30.686Z,98971.06
2023-01-10T18:48:37.301Z,98973.56
2023-01-10T18:50:43.739Z,98977.75
2023-01-10T18:52:48.649Z,98974.41
2023-01-10T18:54:54.606Z,98968.56
2023-01-10T18:56:59.530Z,98969.41
2023-01-10T18:59:04.996Z,98968.59
2023-01-10T19:01:12.369Z,98966.09
2023-01-10T19:03:19.968Z,98970.22
2023-01-10T19:05:24.900Z,98971.06
2023-01-10T19:07:29.835Z,98972.72
2023-01-10T19:09:35.109Z,98964.44
2023-01-10T19:11:40.228Z,98964.41
2023-01-10T19:13:45.227Z,98961.91
2023-01-10T19:15:50.901Z,98964.41
2023-01-10T19:17:57.835Z,98962.75
2023-01-10T19:20:05.349Z,98954.41
2023-01-10T19:22:10.262Z,98954.41
2023-01-10T19:24:28.000Z,98946.88
2023-01-10T19:26:32.965Z,98939.41
2023-01-10T19:28:37.943Z,98934.41
2023-01-10T19:30:43.333Z,98931.91
2023-01-10T19:32:48.285Z,98917.78
2023-01-10T19:34:53.219Z,98915.28
2023-01-10T19:37:00.726Z,98915.28
2023-01-10T19:39:07.308Z,98905.28
2023-01-10T19:41:14.142Z,98904.44
2023-01-10T19:43:19.129Z,98899.44
2023-01-10T19:45:24.059Z,98902.81
2023-01-10T19:47:28.950Z,98904.50
2023-01-10T19:49:36.081Z,98892.84
2023-01-10T19:51:43.118Z,98899.47
2023-01-10T19:53:50.666Z,98897.00
2023-01-10T19:56:03.983Z,98894.47
2023-01-10T19:58:09.174Z,98898.66
2023-01-10T20:00:15.664Z,98895.31
2023-01-10T20:02:20.648Z,98892.00
2023-01-10T20:04:25.562Z,98899.50
2023-01-10T20:06:33.484Z,98905.31
2023-01-10T20:08:38.967Z,98893.66
2023-01-10T20:10:46.429Z,98884.50
2023-01-10T20:12:51.375Z,98884.50
2023-01-10T20:14:56.525Z,98886.16
2023-01-10T20:17:02.392Z,98872.88
2023-01-10T20:19:09.788Z,98871.19
2023-01-10T20:21:17.305Z,98872.88
2023-01-10T20:23:23.468Z,98880.38
2023-01-10T20:25:28.410Z,98869.50
2023-01-10T20:27:36.293Z,98874.50
2023-01-10T20:29:45.567Z,98865.38
2023-01-10T20:31:55.748Z,98862.03
2023-01-10T20:34:00.842Z,98860.31
2023-01-10T20:36:08.360Z,98856.19
2023-01-10T20:38:13.314Z,98848.69
2023-01-10T20:40:18.805Z,98851.16
2023-01-10T20:42:25.140Z,98837.84
2023-01-10T20:44:32.634Z,98839.50
2023-01-10T20:46:38.758Z,98832.88
2023-01-10T20:48:44.868Z,98823.75
2023-01-10T20:50:50.205Z,98821.25
2023-01-10T20:52:55.148Z,98829.59
2023-01-10T20:55:00.053Z,98823.78
2023-01-10T20:57:05.853Z,98828.81
2023-01-10T20:59:11.114Z,98825.47
2023-01-10T21:01:33.204Z,98831.31
2023-01-10T21:03:39.389Z,98829.66
2023-01-10T21:05:44.287Z,98825.50
2023-01-10T21:07:49.221Z,98816.34
2023-01-10T21:09:54.575Z,98812.19
2023-01-10T21:12:10.581Z,98809.72
2023-01-10T21:14:24.972Z,98814.69
2023-01-10T21:16:32.534Z,98815.53
2023-01-10T21:18:41.129Z,98820.53
2023-01-10T21:20:47.224Z,98814.69
2023-01-10T21:22:52.202Z,98816.34
2023-01-10T21:24:57.193Z,98816.34
2023-01-10T21:27:02.112Z,98809.72
2023-01-10T21:29:07.098Z,98802.25
2023-01-10T21:31:12.904Z,98808.03
2023-01-10T21:33:20.429Z,98801.41
2023-01-10T21:35:25.336Z,98803.06
2023-01-10T21:37:30.267Z,98794.75
2023-01-10T21:39:35.243Z,98787.28
2023-01-10T21:41:52.660Z,98791.44
2023-01-10T21:43:57.567Z,98783.16
2023-01-10T21:46:03.277Z,98786.47
2023-01-10T21:48:09.214Z,98781.50
2023-01-10T21:50:17.643Z,98769.88
2023-01-10T21:52:22.614Z,98772.38
2023-01-10T21:54:27.529Z,98769.88
2023-01-10T21:56:32.526Z,98768.22
2023-01-10T21:58:37.422Z,98769.03
2023-01-10T22:00:42.383Z,98762.41
2023-01-10T22:02:47.721Z,98768.22
2023-01-10T22:04:55.271Z,98764.09
2023-01-10T22:07:02.816Z,98760.75
2023-01-10T22:09:08.205Z,98763.28
2023-01-10T22:11:13.231Z,98749.97
2023-01-10T22:13:18.462Z,98759.94
2023-01-10T22:15:23.554Z,98751.59
2023-01-10T22:17:28.630Z,98758.28
2023-01-10T22:19:33.562Z,98758.28
2023-01-10T22:21:42.213Z,98753.31
2023-01-10T22:23:50.379Z,98748.34
2023-01-10T22:26:03.346Z,98737.53
2023-01-10T22:28:08.396Z,98740.88
2023-01-10T22:30:15.127Z,98733.41
2023-01-10T22:32:20.423Z,98740.91
2023-01-10T22:34:25.797Z,98734.28
2023-01-10T22:36:30.723Z,98733.44
2023-01-10T22:38:36.585Z,98723.50
2023-01-10T22:40:44.080Z,98724.34
2023-01-10T22:42:52.298Z,98723.50
2023-01-10T22:44:57.203Z,98725.16
2023-01-10T22:47:02.109Z,98721.81
2023-01-10T22:49:07.040Z,98721.03
2023-01-10T22:51:12.293Z,98720.16
2023-01-10T22:53:17.280Z,98707.72
2023-01-10T22:55:22.773Z,98721.88
2023-01-10T22:57:33.018Z,98717.66
2023-01-10T22:59:38.136Z,98703.56
2023-01-10T23:01:43.071Z,98700.25
2023-01-10T23:03:49.021Z,98693.59
2023-01-10T23:05:58.014Z,98701.09
2023-01-10T23:08:02.941Z,98703.56
2023-01-10T23:10:24.433Z,98689.44
2023-01-10T23:12:39.810Z,98681.91
2023-01-10T23:14:44.715Z,98686.88
2023-01-10T23:16:50.100Z,98686.88
2023-01-10T23:18:55.465Z,98686.03
2023-01-10T23:21:00.768Z,98685.22
2023-01-10T23:23:05.746Z,98673.56
2023-01-10T23:25:11.724Z,98675.22
2023-01-10T23:27:16.825Z,98674.38
2023-01-10T23:29:24.687Z,98675.19
2023-01-10T23:31:32.188Z,98673.50
2023-01-10T23:33:37.883Z,98660.19
2023-01-10T23:35:42.808Z,98671.78
2023-01-10T23:37:48.079Z,98666.78
2023-01-10T23:39:53.047Z,98662.59
2023-01-10T23:41:57.934Z,98651.78
2023-01-10T23:44:03.773Z,98651.75
2023-01-10T23:46:12.217Z,98656.72
2023-01-10T23:48:17.634Z,98652.59
2023-01-10T23:50:23.349Z,98660.06
2023-01-10T23:52:31.648Z,98652.59
2023-01-10T23:54:36.810Z,98653.41
2023-01-10T23:56:41.725Z,98655.09
2023-01-10T23:58:47.063Z,98660.06
